sensor_id;sensor_type;location;lat;lon;timestamp;pressure;altitude;pressure_sealevel;temperature;humidity
76156;BME280;64906;51.290;7.348;2023-04-24T00:00:01;97204.91;;;20.93;41.49
76156;BME280;64906;51.290;7.348;2023-04-24T00:02:26;97206.34;;;20.91;41.58
76156;BME280;64906;51.290;7.348;2023-04-24T00:04:51;97205.41;;;20.87;41.63
76156;BME280;64906;51.290;7.348;2023-04-24T00:07:17;97208.16;;;20.87;41.44
76156;BME280;64906;51.290;7.348;2023-04-24T00:09:43;97205.09;;;20.88;41.36
76156;BME280;64906;51.290;7.348;2023-04-24T00:12:10;97207.03;;;20.88;41.45
76156;BME280;64906;51.290;7.348;2023-04-24T00:14:35;97206.69;;;20.89;41.54
76156;BME280;64906;51.290;7.348;2023-04-24T00:17:01;97205.75;;;20.85;41.54
76156;BME280;64906;51.290;7.348;2023-04-24T00:19:28;97204.16;;;20.84;41.31
76156;BME280;64906;51.290;7.348;2023-04-24T00:21:54;97207.69;;;20.85;41.49
76156;BME280;64906;51.290;7.348;2023-04-24T00:24:19;97209.63;;;20.84;41.39
76156;BME280;64906;51.290;7.348;2023-04-24T00:26:45;97212.84;;;20.86;41.37
76156;BME280;64906;51.290;7.348;2023-04-24T00:29:10;97202.56;;;20.83;41.73
76156;BME280;64906;51.290;7.348;2023-04-24T00:31:35;97204.47;;;20.83;41.36
76156;BME280;64906;51.290;7.348;2023-04-24T00:34:01;97198.19;;;20.82;41.64
76156;BME280;64906;51.290;7.348;2023-04-24T00:36:27;97193.69;;;20.78;41.68
76156;BME280;64906;51.290;7.348;2023-04-24T00:38:53;97197.69;;;20.80;41.55
76156;BME280;64906;51.290;7.348;2023-04-24T00:41:18;97201.59;;;20.79;41.70
76156;BME280;64906;51.290;7.348;2023-04-24T00:43:44;97196.09;;;20.79;41.33
76156;BME280;64906;51.290;7.348;2023-04-24T00:46:10;97192.56;;;20.79;41.42
76156;BME280;64906;51.290;7.348;2023-04-24T00:48:37;97196.09;;;20.79;41.33
76156;BME280;64906;51.290;7.348;2023-04-24T00:51:03;97192.56;;;20.79;41.35
76156;BME280;64906;51.290;7.348;2023-04-24T00:53:29;97186.47;;;20.73;41.60
76156;BME280;64906;51.290;7.348;2023-04-24T00:55:54;97180.19;;;20.73;41.71
76156;BME280;64906;51.290;7.348;2023-04-24T00:58:20;97184.84;;;20.72;41.59
76156;BME280;64906;51.290;7.348;2023-04-24T01:00:45;97179.69;;;20.71;41.58
76156;BME280;64906;51.290;7.348;2023-04-24T01:03:12;97182.09;;;20.72;41.58
76156;BME280;64906;51.290;7.348;2023-04-24T01:05:39;97177.91;;;20.75;41.38
76156;BME280;64906;51.290;7.348;2023-04-24T01:08:05;97193.56;;;20.74;41.59
76156;BME280;64906;51.290;7.348;2023-04-24T01:10:32;97188.56;;;20.76;41.44
76156;BME280;64906;51.290;7.348;2023-04-24T01:12:58;97183.25;;;20.71;41.52
76156;BME280;64906;51.290;7.348;2023-04-24T01:15:24;97190.00;;;20.74;41.24
76156;BME280;64906;51.290;7.348;2023-04-24T01:17:49;97188.75;;;20.71;41.72
76156;BME280;64906;51.290;7.348;2023-04-24T01:20:15;97184.41;;;20.70;41.42
76156;BME280;64906;51.290;7.348;2023-04-24T01:22:41;97182.00;;;20.69;41.35
76156;BME280;64906;51.290;7.348;2023-04-24T01:25:07;97185.03;;;20.67;41.44
76156;BME280;64906;51.290;7.348;2023-04-24T01:27:32;97183.31;;;20.63;41.54
76156;BME280;64906;51.290;7.348;2023-04-24T01:29:58;97183.78;;;20.65;41.43
76156;BME280;64906;51.290;7.348;2023-04-24T01:32:24;97183.44;;;20.66;41.60
76156;BME280;64906;51.290;7.348;2023-04-24T01:34:50;97194.91;;;20.68;41.56
76156;BME280;64906;51.290;7.348;2023-04-24T01:37:15;97187.66;;;20.64;41.47
76156;BME280;64906;51.290;7.348;2023-04-24T01:39:42;97180.72;;;20.66;41.42
76156;BME280;64906;51.290;7.348;2023-04-24T01:42:07;97186.53;;;20.65;41.70
76156;BME280;64906;51.290;7.348;2023-04-24T01:44:33;97177.81;;;20.63;41.44
76156;BME280;64906;51.290;7.348;2023-04-24T01:47:00;97195.91;;;20.64;41.80
76156;BME280;64906;51.290;7.348;2023-04-24T01:49:26;97184.44;;;20.62;41.85
76156;BME280;64906;51.290;7.348;2023-04-24T01:51:52;97184.44;;;20.62;41.74
76156;BME280;64906;51.290;7.348;2023-04-24T01:54:17;97182.03;;;20.60;41.73
76156;BME280;64906;51.290;7.348;2023-04-24T01:56:43;97189.94;;;20.62;41.45
76156;BME280;64906;51.290;7.348;2023-04-24T01:59:12;97180.41;;;20.59;41.64
76156;BME280;64906;51.290;7.348;2023-04-24T02:01:38;97183.97;;;20.60;41.55
76156;BME280;64906;51.290;7.348;2023-04-24T02:04:04;97189.47;;;20.60;41.48
76156;BME280;64906;51.290;7.348;2023-04-24T02:06:30;97195.75;;;20.60;41.57
76156;BME280;64906;51.290;7.348;2023-04-24T02:08:58;97198.00;;;20.58;41.64
76156;BME280;64906;51.290;7.348;2023-04-24T02:11:23;97192.53;;;20.58;41.79
76156;BME280;64906;51.290;7.348;2023-04-24T02:13:49;97190.59;;;20.59;41.70
76156;BME280;64906;51.290;7.348;2023-04-24T02:16:15;97197.19;;;20.58;41.37
76156;BME280;64906;51.290;7.348;2023-04-24T02:18:40;97188.53;;;20.56;41.80
76156;BME280;64906;51.290;7.348;2023-04-24T02:21:06;97192.88;;;20.57;41.77
76156;BME280;64906;51.290;7.348;2023-04-24T02:23:31;97194.78;;;20.56;41.75
76156;BME280;64906;51.290;7.348;2023-04-24T02:25:56;97203.81;;;20.57;41.65
76156;BME280;64906;51.290;7.348;2023-04-24T02:28:22;97203.34;;;20.55;41.86
76156;BME280;64906;51.290;7.348;2023-04-24T02:30:47;97194.97;;;20.51;41.52
76156;BME280;64906;51.290;7.348;2023-04-24T02:33:12;97193.53;;;20.54;41.64
76156;BME280;64906;51.290;7.348;2023-04-24T02:35:38;97205.16;;;20.51;41.54
76156;BME280;64906;51.290;7.348;2023-04-24T02:38:03;97208.03;;;20.54;41.72
76156;BME280;64906;51.290;7.348;2023-04-24T02:40:29;97211.44;;;20.51;41.88
76156;BME280;64906;51.290;7.348;2023-04-24T02:42:55;97219.16;;;20.49;41.88
76156;BME280;64906;51.290;7.348;2023-04-24T02:45:20;97228.69;;;20.52;41.49
76156;BME280;64906;51.290;7.348;2023-04-24T02:47:45;97220.94;;;20.54;41.84
76156;BME280;64906;51.290;7.348;2023-04-24T02:50:11;97222.72;;;20.50;41.77
76156;BME280;64906;51.290;7.348;2023-04-24T02:52:36;97230.94;;;20.50;41.71
76156;BME280;64906;51.290;7.348;2023-04-24T02:55:01;97227.09;;;20.51;41.64
76156;BME280;64906;51.290;7.348;2023-04-24T02:57:27;97228.53;;;20.48;41.81
76156;BME280;64906;51.290;7.348;2023-04-24T02:59:52;97233.22;;;20.48;41.74
76156;BME280;64906;51.290;7.348;2023-04-24T03:02:17;97219.06;;;20.46;41.76
76156;BME280;64906;51.290;7.348;2023-04-24T03:04:43;97224.97;;;20.48;41.65
76156;BME280;64906;51.290;7.348;2023-04-24T03:07:08;97231.59;;;20.47;41.86
76156;BME280;64906;51.290;7.348;2023-04-24T03:09:33;97228.88;;;20.47;41.80
76156;BME280;64906;51.290;7.348;2023-04-24T03:11:59;97235.00;;;20.44;41.79
76156;BME280;64906;51.290;7.348;2023-04-24T03:14:25;97233.09;;;20.44;41.89
76156;BME280;64906;51.290;7.348;2023-04-24T03:16:50;97231.94;;;20.45;41.91
76156;BME280;64906;51.290;7.348;2023-04-24T03:19:15;97237.28;;;20.42;41.75
76156;BME280;64906;51.290;7.348;2023-04-24T03:21:41;97226.66;;;20.40;41.77
76156;BME280;64906;51.290;7.348;2023-04-24T03:24:07;97243.09;;;20.40;41.55
76156;BME280;64906;51.290;7.348;2023-04-24T03:26:33;97248.72;;;20.44;41.83
76156;BME280;64906;51.290;7.348;2023-04-24T03:28:58;97241.34;;;20.36;41.49
76156;BME280;64906;51.290;7.348;2023-04-24T03:31:24;97250.66;;;20.43;41.87
76156;BME280;64906;51.290;7.348;2023-04-24T03:33:49;97250.97;;;20.42;41.72
76156;BME280;64906;51.290;7.348;2023-04-24T03:36:15;97251.31;;;20.40;41.57
76156;BME280;64906;51.290;7.348;2023-04-24T03:38:40;97251.66;;;20.39;41.62
76156;BME280;64906;51.290;7.348;2023-04-24T03:41:05;97255.38;;;20.34;41.91
76156;BME280;64906;51.290;7.348;2023-04-24T03:43:30;97246.81;;;20.36;41.53
76156;BME280;64906;51.290;7.348;2023-04-24T03:45:58;97255.19;;;20.39;41.58
76156;BME280;64906;51.290;7.348;2023-04-24T03:48:23;97253.41;;;20.35;41.67
76156;BME280;64906;51.290;7.348;2023-04-24T03:50:48;97256.16;;;20.35;41.63
76156;BME280;64906;51.290;7.348;2023-04-24T03:53:14;97253.41;;;20.35;41.55
76156;BME280;64906;51.290;7.348;2023-04-24T03:55:40;97249.56;;;20.36;41.52
76156;BME280;64906;51.290;7.348;2023-04-24T03:58:05;97260.03;;;20.34;41.95
76156;BME280;64906;51.290;7.348;2023-04-24T04:00:31;97262.78;;;20.34;41.78
76156;BME280;64906;51.290;7.348;2023-04-24T04:02:57;97261.63;;;20.35;41.79
76156;BME280;64906;51.290;7.348;2023-04-24T04:05:22;97261.63;;;20.35;41.67
76156;BME280;64906;51.290;7.348;2023-04-24T04:07:47;97260.38;;;20.32;41.75
76156;BME280;64906;51.290;7.348;2023-04-24T04:10:13;97263.44;;;20.31;41.58
76156;BME280;64906;51.290;7.348;2023-04-24T04:12:38;97260.69;;;20.31;41.89
76156;BME280;64906;51.290;7.348;2023-04-24T04:15:03;97259.56;;;20.32;41.90
76156;BME280;64906;51.290;7.348;2023-04-24T04:17:31;97263.78;;;20.29;41.82
76156;BME280;64906;51.290;7.348;2023-04-24T04:19:56;97267.63;;;20.28;41.67
76156;BME280;64906;51.290;7.348;2023-04-24T04:22:22;97262.97;;;20.29;41.73
76156;BME280;64906;51.290;7.348;2023-04-24T04:24:47;97258.13;;;20.26;41.95
76156;BME280;64906;51.290;7.348;2023-04-24T04:27:13;97261.38;;;20.28;41.72
76156;BME280;64906;51.290;7.348;2023-04-24T04:29:38;97252.66;;;20.26;41.76
76156;BME280;64906;51.290;7.348;2023-04-24T04:32:05;97258.94;;;20.26;41.60
76156;BME280;64906;51.290;7.348;2023-04-24T04:34:31;97258.94;;;20.26;41.68
76156;BME280;64906;51.290;7.348;2023-04-24T04:36:57;97269.09;;;20.26;41.79
76156;BME280;64906;51.290;7.348;2023-04-24T04:39:24;97266.84;;;20.28;42.04
76156;BME280;64906;51.290;7.348;2023-04-24T04:41:50;97268.28;;;20.25;41.94
76156;BME280;64906;51.290;7.348;2023-04-24T04:44:15;97274.91;;;20.24;41.73
76156;BME280;64906;51.290;7.348;2023-04-24T04:46:41;97256.84;;;20.23;41.53
76156;BME280;64906;51.290;7.348;2023-04-24T04:49:07;97273.75;;;20.25;41.83
76156;BME280;64906;51.290;7.348;2023-04-24T04:51:34;97272.50;;;20.23;41.54
76156;BME280;64906;51.290;7.348;2023-04-24T04:53:59;97276.84;;;20.24;41.62
76156;BME280;64906;51.290;7.348;2023-04-24T04:56:26;97271.34;;;20.24;41.96
76156;BME280;64906;51.290;7.348;2023-04-24T04:58:51;97269.28;;;20.21;41.65
76156;BME280;64906;51.290;7.348;2023-04-24T05:01:16;97277.50;;;20.21;41.83
76156;BME280;64906;51.290;7.348;2023-04-24T05:03:42;97278.16;;;20.18;41.83
76156;BME280;64906;51.290;7.348;2023-04-24T05:06:07;97279.09;;;20.22;41.84
76156;BME280;64906;51.290;7.348;2023-04-24T05:08:33;97274.44;;;20.22;41.83
76156;BME280;64906;51.290;7.348;2023-04-24T05:10:58;97275.09;;;20.19;41.94
76156;BME280;64906;51.290;7.348;2023-04-24T05:13:23;97271.66;;;20.14;41.96
76156;BME280;64906;51.290;7.348;2023-04-24T05:15:49;97269.28;;;20.21;41.55
76156;BME280;64906;51.290;7.348;2023-04-24T05:18:14;97279.75;;;20.19;41.48
76156;BME280;64906;51.290;7.348;2023-04-24T05:20:40;97279.75;;;20.19;41.98
76156;BME280;64906;51.290;7.348;2023-04-24T05:23:08;97280.06;;;20.17;41.60
76156;BME280;64906;51.290;7.348;2023-04-24T05:25:33;97277.34;;;20.17;41.58
76156;BME280;64906;51.290;7.348;2023-04-24T05:28:00;97273.78;;;20.17;41.74
76156;BME280;64906;51.290;7.348;2023-04-24T05:30:26;97285.22;;;20.19;41.55
76156;BME280;64906;51.290;7.348;2023-04-24T05:32:51;97289.78;;;20.15;41.83
76156;BME280;64906;51.290;7.348;2023-04-24T05:35:16;97287.03;;;20.15;41.80
76156;BME280;64906;51.290;7.348;2023-04-24T05:37:43;97284.28;;;20.15;41.96
76156;BME280;64906;51.290;7.348;2023-04-24T05:40:09;97287.31;;;20.13;41.66
76156;BME280;64906;51.290;7.348;2023-04-24T05:42:34;97281.34;;;20.11;41.98
76156;BME280;64906;51.290;7.348;2023-04-24T05:44:59;97296.03;;;20.15;41.83
76156;BME280;64906;51.290;7.348;2023-04-24T05:47:25;97287.31;;;20.13;41.83
76156;BME280;64906;51.290;7.348;2023-04-24T05:49:51;97295.06;;;20.11;41.54
76156;BME280;64906;51.290;7.348;2023-04-24T05:52:16;97288.44;;;20.12;41.81
76156;BME280;64906;51.290;7.348;2023-04-24T05:54:42;97286.50;;;20.13;41.97
76156;BME280;64906;51.290;7.348;2023-04-24T05:57:07;97293.59;;;20.14;42.38
76156;BME280;64906;51.290;7.348;2023-04-24T05:59:33;97293.59;;;20.14;42.47
76156;BME280;64906;51.290;7.348;2023-04-24T06:01:59;97291.50;;;20.11;42.41
76156;BME280;64906;51.290;7.348;2023-04-24T06:04:25;97282.34;;;20.07;42.43
76156;BME280;64906;51.290;7.348;2023-04-24T06:06:50;97297.47;;;20.04;42.76
76156;BME280;64906;51.290;7.348;2023-04-24T06:09:21;97298.94;;;20.01;42.64
76156;BME280;64906;51.290;7.348;2023-04-24T06:11:46;97293.94;;;20.03;42.48
76156;BME280;64906;51.290;7.348;2023-04-24T06:14:12;97303.44;;;20.06;42.69
76156;BME280;64906;51.290;7.348;2023-04-24T06:16:37;97306.50;;;20.04;42.84
76156;BME280;64906;51.290;7.348;2023-04-24T06:19:04;97298.63;;;20.03;42.47
76156;BME280;64906;51.290;7.348;2023-04-24T06:21:29;97300.53;;;20.02;42.62
76156;BME280;64906;51.290;7.348;2023-04-24T06:23:55;97308.75;;;20.02;42.44
76156;BME280;64906;51.290;7.348;2023-04-24T06:26:21;97307.94;;;20.02;42.53
76156;BME280;64906;51.290;7.348;2023-04-24T06:28:47;97302.03;;;20.00;42.35
76156;BME280;64906;51.290;7.348;2023-04-24T06:31:12;97296.84;;;19.98;42.46
76156;BME280;64906;51.290;7.348;2023-04-24T06:33:37;97296.84;;;19.98;42.65
76156;BME280;64906;51.290;7.348;2023-04-24T06:36:03;97309.41;;;19.99;42.57
76156;BME280;64906;51.290;7.348;2023-04-24T06:38:29;97305.38;;;19.97;42.36
76156;BME280;64906;51.290;7.348;2023-04-24T06:40:54;97303.78;;;19.96;42.32
76156;BME280;64906;51.290;7.348;2023-04-24T06:43:20;97298.31;;;19.96;42.48
76156;BME280;64906;51.290;7.348;2023-04-24T06:45:45;97303.78;;;19.96;42.26
76156;BME280;64906;51.290;7.348;2023-04-24T06:48:12;97300.22;;;19.95;42.43
76156;BME280;64906;51.290;7.348;2023-04-24T06:50:37;97294.28;;;19.93;42.64
76156;BME280;64906;51.290;7.348;2023-04-24T06:53:03;97302.19;;;19.95;42.48
76156;BME280;64906;51.290;7.348;2023-04-24T06:55:28;97305.25;;;19.93;42.37
76156;BME280;64906;51.290;7.348;2023-04-24T06:57:53;97293.97;;;19.95;42.56
76156;BME280;64906;51.290;7.348;2023-04-24T07:00:19;97298.63;;;19.94;42.52
76156;BME280;64906;51.290;7.348;2023-04-24T07:02:44;97297.50;;;19.95;42.24
76156;BME280;64906;51.290;7.348;2023-04-24T07:05:10;97305.72;;;19.95;42.50
76156;BME280;64906;51.290;7.348;2023-04-24T07:07:35;97303.78;;;19.96;42.29
76156;BME280;64906;51.290;7.348;2023-04-24T07:10:04;97295.25;;;19.97;42.30
76156;BME280;64906;51.290;7.348;2023-04-24T07:12:29;97303.13;;;19.99;42.23
76156;BME280;64906;51.290;7.348;2023-04-24T07:14:55;97298.47;;;19.99;42.76
76156;BME280;64906;51.290;7.348;2023-04-24T07:17:20;97297.50;;;19.95;42.78
76156;BME280;64906;51.290;7.348;2023-04-24T07:19:46;97291.34;;;19.98;42.87
76156;BME280;64906;51.290;7.348;2023-04-24T07:22:11;97300.56;;;19.94;43.15
76156;BME280;64906;51.290;7.348;2023-04-24T07:24:43;97298.63;;;19.94;43.15
76156;BME280;64906;51.290;7.348;2023-04-24T07:27:08;97297.31;;;20.00;43.43
76156;BME280;64906;51.290;7.348;2023-04-24T07:29:33;97301.19;;;20.08;42.98
76156;BME280;64906;51.290;7.348;2023-04-24T07:31:59;97300.88;;;20.10;42.71
76156;BME280;64906;51.290;7.348;2023-04-24T07:34:24;97313.41;;;20.11;42.77
76156;BME280;64906;51.290;7.348;2023-04-24T07:36:49;97299.25;;;20.08;42.79
76156;BME280;64906;51.290;7.348;2023-04-24T07:39:15;97307.13;;;20.10;42.93
76156;BME280;64906;51.290;7.348;2023-04-24T07:41:40;97304.38;;;20.10;42.68
76156;BME280;64906;51.290;7.348;2023-04-24T07:44:06;97312.16;;;20.08;42.62
76156;BME280;64906;51.290;7.348;2023-04-24T07:46:31;97298.13;;;20.01;42.78
76156;BME280;64906;51.290;7.348;2023-04-24T07:48:57;97317.81;;;20.03;42.74
76156;BME280;64906;51.290;7.348;2023-04-24T07:51:24;97309.88;;;20.10;42.99
76156;BME280;64906;51.290;7.348;2023-04-24T07:53:52;97312.13;;;20.17;43.06
76156;BME280;64906;51.290;7.348;2023-04-24T07:56:18;97320.69;;;20.24;43.27
76156;BME280;64906;51.290;7.348;2023-04-24T07:58:44;97307.47;;;20.26;42.93
76156;BME280;64906;51.290;7.348;2023-04-24T08:01:09;97320.03;;;20.27;42.87
76156;BME280;64906;51.290;7.348;2023-04-24T08:03:35;97316.16;;;20.28;42.95
76156;BME280;64906;51.290;7.348;2023-04-24T08:06:00;97321.66;;;20.28;43.08
76156;BME280;64906;51.290;7.348;2023-04-24T08:08:26;97334.69;;;20.31;43.16
76156;BME280;64906;51.290;7.348;2023-04-24T08:10:51;97320.66;;;20.32;43.24
76156;BME280;64906;51.290;7.348;2023-04-24T08:13:16;97327.75;;;20.33;43.23
76156;BME280;64906;51.290;7.348;2023-04-24T08:15:42;97322.25;;;20.33;43.26
76156;BME280;64906;51.290;7.348;2023-04-24T08:18:07;97330.97;;;20.35;42.98
76156;BME280;64906;51.290;7.348;2023-04-24T08:20:33;97331.44;;;20.37;42.99
76156;BME280;64906;51.290;7.348;2023-04-24T08:22:58;97362.09;;;20.39;43.08
76156;BME280;64906;51.290;7.348;2023-04-24T08:25:23;97373.50;;;20.41;42.96
76156;BME280;64906;51.290;7.348;2023-04-24T08:27:50;97364.66;;;20.44;43.07
76156;BME280;64906;51.290;7.348;2023-04-24T08:30:15;97365.59;;;20.48;42.91
76156;BME280;64906;51.290;7.348;2023-04-24T08:32:41;97372.69;;;20.49;42.91
76156;BME280;64906;51.290;7.348;2023-04-24T08:35:07;97382.53;;;20.50;42.78
76156;BME280;64906;51.290;7.348;2023-04-24T08:37:34;97375.91;;;20.51;42.84
76156;BME280;64906;51.290;7.348;2023-04-24T08:39:59;97368.00;;;20.50;42.83
76156;BME280;64906;51.290;7.348;2023-04-24T08:42:28;97375.13;;;20.51;43.06
76156;BME280;64906;51.290;7.348;2023-04-24T08:44:54;97387.69;;;20.52;42.95
76156;BME280;64906;51.290;7.348;2023-04-24T08:47:20;97384.13;;;20.51;43.05
76156;BME280;64906;51.290;7.348;2023-04-24T08:49:47;97381.38;;;20.51;42.90
76156;BME280;64906;51.290;7.348;2023-04-24T08:52:13;97393.97;;;20.52;42.89
76156;BME280;64906;51.290;7.348;2023-04-24T08:54:39;97395.59;;;20.53;42.75
76156;BME280;64906;51.290;7.348;2023-04-24T08:57:07;97390.09;;;20.53;42.76
76156;BME280;64906;51.290;7.348;2023-04-24T08:59:33;97400.75;;;20.55;42.68
76156;BME280;64906;51.290;7.348;2023-04-24T09:02:01;97391.41;;;20.56;43.03
76156;BME280;64906;51.290;7.348;2023-04-24T09:04:28;97400.09;;;20.58;42.54
76156;BME280;64906;51.290;7.348;2023-04-24T09:06:56;97411.06;;;20.58;42.75
76156;BME280;64906;51.290;7.348;2023-04-24T09:09:23;97409.44;;;20.57;42.51
76156;BME280;64906;51.290;7.348;2023-04-24T09:11:49;97414.13;;;20.56;42.47
76156;BME280;64906;51.290;7.348;2023-04-24T09:14:15;97424.75;;;20.58;42.61
76156;BME280;64906;51.290;7.348;2023-04-24T09:16:42;97422.84;;;20.58;42.74
76156;BME280;64906;51.290;7.348;2023-04-24T09:19:08;97423.97;;;20.57;42.21
76156;BME280;64906;51.290;7.348;2023-04-24T09:21:34;97422.00;;;20.58;42.77
76156;BME280;64906;51.290;7.348;2023-04-24T09:24:02;97426.38;;;20.59;42.60
76156;BME280;64906;51.290;7.348;2023-04-24T09:26:34;97445.75;;;20.62;42.27
76156;BME280;64906;51.290;7.348;2023-04-24T09:29:00;97447.66;;;20.62;42.27
76156;BME280;64906;51.290;7.348;2023-04-24T09:31:27;97444.59;;;20.63;42.34
76156;BME280;64906;51.290;7.348;2023-04-24T09:33:57;97461.88;;;20.64;42.50
76156;BME280;64906;51.290;7.348;2023-04-24T09:36:37;97457.50;;;20.63;42.44
76156;BME280;64906;51.290;7.348;2023-04-24T09:39:08;97452.50;;;20.65;42.33
76156;BME280;64906;51.290;7.348;2023-04-24T09:41:43;97469.28;;;20.63;42.29
76156;BME280;64906;51.290;7.348;2023-04-24T09:44:15;97472.00;;;20.63;42.35
76156;BME280;64906;51.290;7.348;2023-04-24T09:46:41;97489.28;;;20.64;42.08
76156;BME280;64906;51.290;7.348;2023-04-24T09:49:15;97470.72;;;20.61;42.42
76156;BME280;64906;51.290;7.348;2023-04-24T09:51:42;97508.81;;;20.62;41.97
76156;BME280;64906;51.290;7.348;2023-04-24T09:54:15;97511.84;;;20.61;41.96
76156;BME280;64906;51.290;7.348;2023-04-24T09:56:45;97523.63;;;20.61;42.29
76156;BME280;64906;51.290;7.348;2023-04-24T09:59:13;97533.00;;;20.60;42.28
76156;BME280;64906;51.290;7.348;2023-04-24T10:01:39;97551.88;;;20.62;42.24
76156;BME280;64906;51.290;7.348;2023-04-24T10:04:18;97560.25;;;20.57;42.39
76156;BME280;64906;51.290;7.348;2023-04-24T10:06:44;97565.88;;;20.52;42.07
76156;BME280;64906;51.290;7.348;2023-04-24T10:09:09;97565.88;;;20.52;42.25
76156;BME280;64906;51.290;7.348;2023-04-24T10:11:37;97586.50;;;20.49;42.49
76156;BME280;64906;51.290;7.348;2023-04-24T10:14:03;97580.25;;;20.49;42.46
76156;BME280;64906;51.290;7.348;2023-04-24T10:16:29;97581.34;;;20.48;42.51
76156;BME280;64906;51.290;7.348;2023-04-24T10:18:58;97597.81;;;20.48;42.33
76156;BME280;64906;51.290;7.348;2023-04-24T10:21:24;97587.16;;;20.46;42.41
76156;BME280;64906;51.290;7.348;2023-04-24T10:23:51;97602.00;;;20.45;42.25
76156;BME280;64906;51.290;7.348;2023-04-24T10:26:17;97606.66;;;20.45;42.48
76156;BME280;64906;51.290;7.348;2023-04-24T10:28:47;97617.63;;;20.45;42.14
76156;BME280;64906;51.290;7.348;2023-04-24T10:31:13;97617.97;;;20.43;42.39
76156;BME280;64906;51.290;7.348;2023-04-24T10:33:42;97620.69;;;20.43;42.52
76156;BME280;64906;51.290;7.348;2023-04-24T10:36:12;97630.38;;;20.41;42.26
76156;BME280;64906;51.290;7.348;2023-04-24T10:38:40;97629.56;;;20.40;42.11
76156;BME280;64906;51.290;7.348;2023-04-24T10:41:08;97623.59;;;20.38;42.58
76156;BME280;64906;51.290;7.348;2023-04-24T10:43:34;97642.44;;;20.40;42.11
76156;BME280;64906;51.290;7.348;2023-04-24T10:46:05;97636.66;;;20.33;42.64
76156;BME280;64906;51.290;7.348;2023-04-24T10:48:31;97672.28;;;20.41;42.29
76156;BME280;64906;51.290;7.348;2023-04-24T10:50:57;97653.91;;;20.42;42.39
76156;BME280;64906;51.290;7.348;2023-04-24T10:53:24;97660.72;;;20.44;42.39
76156;BME280;64906;51.290;7.348;2023-04-24T10:56:06;97659.41;;;20.42;42.24
76156;BME280;64906;51.290;7.348;2023-04-24T10:58:41;97664.06;;;20.41;42.37
76156;BME280;64906;51.290;7.348;2023-04-24T11:01:23;97662.78;;;20.39;42.45
76156;BME280;64906;51.290;7.348;2023-04-24T11:03:55;97668.25;;;20.39;42.13
76156;BME280;64906;51.290;7.348;2023-04-24T11:06:32;97670.50;;;20.37;42.13
76156;BME280;64906;51.290;7.348;2023-04-24T11:09:03;97666.03;;;20.41;41.90
76156;BME280;64906;51.290;7.348;2023-04-24T11:11:29;97675.03;;;20.41;42.20
76156;BME280;64906;51.290;7.348;2023-04-24T11:16:21;97691.47;;;20.41;42.23
76156;BME280;64906;51.290;7.348;2023-04-24T11:18:51;97702.44;;;20.41;42.12
76156;BME280;64906;51.290;7.348;2023-04-24T11:21:20;97695.34;;;20.40;42.22
76156;BME280;64906;51.290;7.348;2023-04-24T11:23:45;97704.41;;;20.41;42.27
76156;BME280;64906;51.290;7.348;2023-04-24T11:26:13;97698.91;;;20.41;42.12
76156;BME280;64906;51.290;7.348;2023-04-24T11:28:48;97714.53;;;20.40;41.93
76156;BME280;64906;51.290;7.348;2023-04-24T11:31:43;97726.31;;;20.41;42.11
76156;BME280;64906;51.290;7.348;2023-04-24T11:34:15;97717.78;;;20.42;41.90
76156;BME280;64906;51.290;7.348;2023-04-24T11:36:45;97726.50;;;20.44;42.16
76156;BME280;64906;51.290;7.348;2023-04-24T11:39:12;97718.28;;;20.44;41.94
76156;BME280;64906;51.290;7.348;2023-04-24T11:41:37;97729.72;;;20.46;41.92
76156;BME280;64906;51.290;7.348;2023-04-24T11:44:06;97728.94;;;20.46;41.77
76156;BME280;64906;51.290;7.348;2023-04-24T11:46:31;97726.97;;;20.46;42.09
76156;BME280;64906;51.290;7.348;2023-04-24T11:48:57;97730.03;;;20.45;42.20
76156;BME280;64906;51.290;7.348;2023-04-24T11:51:24;97731.16;;;20.44;41.85
76156;BME280;64906;51.290;7.348;2023-04-24T11:53:54;97748.59;;;20.48;41.98
76156;BME280;64906;51.290;7.348;2023-04-24T11:56:23;97751.19;;;20.44;42.14
76156;BME280;64906;51.290;7.348;2023-04-24T11:58:52;97739.88;;;20.46;42.36
76156;BME280;64906;51.290;7.348;2023-04-24T12:01:18;97743.44;;;20.55;42.43
76156;BME280;64906;51.290;7.348;2023-04-24T12:03:48;97743.81;;;20.62;42.16
76156;BME280;64906;51.290;7.348;2023-04-24T12:06:13;97741.56;;;20.64;42.21
76156;BME280;64906;51.290;7.348;2023-04-24T12:08:39;97747.84;;;20.73;42.56
76156;BME280;64906;51.290;7.348;2023-04-24T12:11:06;97753.84;;;20.75;42.42
76156;BME280;64906;51.290;7.348;2023-04-24T12:13:35;97762.25;;;20.78;42.68
76156;BME280;64906;51.290;7.348;2023-04-24T12:16:04;97752.88;;;20.79;42.70
76156;BME280;64906;51.290;7.348;2023-04-24T12:18:30;97772.25;;;20.83;42.48
76156;BME280;64906;51.290;7.348;2023-04-24T12:21:17;97765.00;;;20.87;42.20
76156;BME280;64906;51.290;7.348;2023-04-24T12:23:46;97765.16;;;20.90;42.64
76156;BME280;64906;51.290;7.348;2023-04-24T12:26:20;97770.66;;;20.90;42.37
76156;BME280;64906;51.290;7.348;2023-04-24T12:28:48;97770.31;;;20.92;42.78
76156;BME280;64906;51.290;7.348;2023-04-24T12:31:15;97776.13;;;20.90;42.92
76156;BME280;64906;51.290;7.348;2023-04-24T12:33:41;97783.75;;;20.93;43.16
76156;BME280;64906;51.290;7.348;2023-04-24T12:36:09;97787.91;;;20.91;42.94
76156;BME280;64906;51.290;7.348;2023-04-24T12:38:35;97779.69;;;20.91;43.00
76156;BME280;64906;51.290;7.348;2023-04-24T12:41:07;97793.91;;;20.93;42.94
76156;BME280;64906;51.290;7.348;2023-04-24T12:43:33;97794.91;;;20.97;43.41
76156;BME280;64906;51.290;7.348;2023-04-24T12:45:58;97792.16;;;20.97;43.02
76156;BME280;64906;51.290;7.348;2023-04-24T12:48:25;97791.84;;;20.98;43.12
76156;BME280;64906;51.290;7.348;2023-04-24T12:50:51;97805.25;;;21.00;42.91
76156;BME280;64906;51.290;7.348;2023-04-24T12:53:16;97796.72;;;21.01;43.35
76156;BME280;64906;51.290;7.348;2023-04-24T12:55:41;97799.78;;;21.00;43.25
76156;BME280;64906;51.290;7.348;2023-04-24T12:58:07;97806.38;;;20.99;43.15